메인 페이지
METAR-TAF:

METAR-TAF

공항 :

Oiapoque, 아마파, 브라질

위도: 03-50N, 경도: 051-50W, 고도: 39m

현재 날씨관측

예보는 1 시간 1분 전, 21:00시(UTC)에 발표되었습니다.
3kt풍과 동남동풍을 오가는
온도 29°C
습도 74%
기압 1012 hPa
시정 10km 이상
고도 3300ft 상공 구름 조금

METAR: SBOI 202100Z AUTO 08003KT 010V120 9999 FEW033 29/24 Q1012

시각: 19:01 (22:01 UTC)

예보

예보는 7 시간 8분 전, 14:53시(UTC)에 발표되었습니다.
예보 대상 시간: 20일 18시부터 21일 06시까지 (UTC)
남동5kt
시정 10km 이상
고도 2000ft 상공 구름 조금
전환 중
20일 18시부터 20일 20시까지 (UTC)
북동10kt
전환 중
20일 22시부터 20일 24시까지 (UTC)
3kt
고도 3500ft 상공 구름 조금

TAF: SBOI 201453Z 2018/2106 13005KT 9999 FEW020 TX30/2018Z TN24/2106Z BECMG 2018/2020 04010KT BECMG 2022/2024 35003KT FEW035 RMK PGU

4,000개 이상의 공항 관측 자료 및 예보 (METAR 및 TAF 보고).

지도상에서 검색 가능한 기상관측소가 노란 점과 빨간 점으로 표시되어 있습니다.

기상관측소 명을 보려면 표시 위로 마우스를 이동하세요.

날씨 관측과 예보를 보려면 클릭하세요.

지도 변경 : 확대하려면 엑스 표시가 있는 녹색 버튼, 축소하려면 빼기 표시가 있는 녹색 버튼, 다음 페이지의 지도를 보려면 녹색 화살표를 클릭하세요.


METAR-TAF: